Time;durP1;ratioP1;P1;durP2;ratioP2;P2;SDS_P1;SDS_P2;PMS_P1;PMS_P2;Temp;Humidity;BMP_temperature;BMP_pressure;BME280_temperature;BME280_humidity;BME280_pressure;Samples;Min_cycle;Max_cycle;Signal;HPM_P1;HPM_P2
2023/02/13 00:02:10;;;;;;;46.47;21.97;;;;;2.10;103083.00;;;;10025091;29;20221;-78
2023/02/13 00:07:12;;;;;;;46.30;21.43;;;;;2.00;103069.00;;;;10016425;29;20217;-79
2023/02/13 00:12:14;;;;;;;52.23;22.17;;;;;2.00;103070.00;;;;10033090;29;20189;-79
2023/02/13 00:17:16;;;;;;;47.20;20.80;;;;;1.90;103068.00;;;;10032225;29;20208;-79
2023/02/13 00:22:18;;;;;;;46.37;22.47;;;;;1.80;103065.00;;;;10017294;29;20740;-79
2023/02/13 00:27:20;;;;;;;49.03;21.27;;;;;1.80;103067.00;;;;10046905;29;20871;-79
2023/02/13 00:32:22;;;;;;;51.13;22.47;;;;;1.70;103064.00;;;;10036767;29;20206;-79
2023/02/13 00:37:24;;;;;;;54.13;22.07;;;;;1.60;103056.00;;;;9993891;29;20331;-80
2023/02/13 00:42:26;;;;;;;45.23;21.23;;;;;1.60;103064.00;;;;10008604;29;20200;-78
2023/02/13 00:47:28;;;;;;;53.73;23.17;;;;;1.50;103068.00;;;;10084368;29;20211;-79
2023/02/13 00:52:30;;;;;;;56.27;23.30;;;;;1.50;103069.00;;;;10069081;29;20188;-79
2023/02/13 00:57:32;;;;;;;50.17;21.03;;;;;1.50;103072.00;;;;10049417;29;20307;-79
2023/02/13 01:02:39;;;;;;;48.87;19.70;;;;;1.40;103070.00;;;;10045819;29;20223;-78
2023/02/13 01:07:41;;;;;;;52.80;21.37;;;;;1.40;103066.00;;;;10053061;29;20196;-78
2023/02/13 01:12:42;;;;;;;52.47;20.37;;;;;1.30;103058.00;;;;10068918;29;20196;-78
2023/02/13 01:17:44;;;;;;;59.67;22.27;;;;;1.20;103054.00;;;;10077961;29;20206;-79
2023/02/13 01:22:46;;;;;;;53.40;21.67;;;;;1.20;103061.00;;;;10030022;29;20205;-79
2023/02/13 01:27:49;;;;;;;53.20;21.20;;;;;1.10;103073.00;;;;10045403;29;20225;-78
2023/02/13 01:32:51;;;;;;;55.70;21.67;;;;;1.10;103052.00;;;;10016135;29;20210;-78
2023/02/13 01:37:53;;;;;;;50.77;21.00;;;;;1.00;103062.00;;;;10006829;29;20230;-79
2023/02/13 01:42:55;;;;;;;54.20;21.03;;;;;1.00;103056.00;;;;10006466;29;20220;-78
2023/02/13 01:48:05;;;;;;;49.90;21.53;;;;;0.90;103068.00;;;;10005775;29;20206;-79
2023/02/13 01:53:24;;;;;;;52.87;21.03;;;;;0.90;103073.00;;;;10009907;29;20660;-79
2023/02/13 01:58:30;;;;;;;74.53;22.60;;;;;0.80;103077.00;;;;10044202;29;20212;-79
2023/02/13 02:03:39;;;;;;;47.43;21.33;;;;;0.80;103058.00;;;;10064761;29;20906;-78
2023/02/13 02:08:47;;;;;;;61.70;23.87;;;;;0.80;103059.00;;;;10067689;29;20196;-79
2023/02/13 02:13:56;;;;;;;58.43;23.27;;;;;0.80;103051.00;;;;10085209;29;20196;-79
2023/02/13 02:19:21;;;;;;;66.67;23.37;;;;;0.80;103048.00;;;;10066067;29;20211;-79
2023/02/13 02:24:37;;;;;;;55.53;21.63;;;;;0.80;103039.00;;;;10065260;29;20225;-79
2023/02/13 02:29:54;;;;;;;55.50;21.73;;;;;0.80;103029.00;;;;10046626;29;20231;-79
2023/02/13 02:35:05;;;;;;;66.73;23.67;;;;;0.80;103036.00;;;;10028551;29;20205;-79
2023/02/13 02:40:10;;;;;;;46.57;18.33;;;;;0.80;103034.00;;;;10017158;29;20206;-79
2023/02/13 02:45:21;;;;;;;34.07;14.27;;;;;0.90;103022.00;;;;10019777;29;20226;-79
2023/02/13 02:50:35;;;;;;;22.93;12.97;;;;;0.80;103019.00;;;;10004352;29;20194;-79
2023/02/13 02:55:53;;;;;;;23.17;12.13;;;;;0.80;103025.00;;;;9976481;29;20204;-79
2023/02/13 03:06:52;;;;;;;23.43;11.07;;;;;0.70;103032.00;;;;10027718;29;20192;-79
2023/02/13 03:22:41;;;;;;;30.63;12.73;;;;;0.80;103035.00;;;;10042241;29;20303;-78
2023/02/13 03:33:29;;;;;;;46.03;14.33;;;;;1.00;103033.00;;;;10027392;29;20208;-79
2023/02/13 03:38:43;;;;;;;62.80;14.90;;;;;1.10;103023.00;;;;10026524;29;20224;-79
2023/02/13 03:44:04;;;;;;;40.73;15.63;;;;;1.20;103024.00;;;;10027676;29;20213;-80
2023/02/13 04:00:11;;;;;;;29.43;15.57;;;;;1.10;103021.00;;;;10041813;29;20208;-79
2023/02/13 04:05:20;;;;;;;38.53;15.80;;;;;1.10;103026.00;;;;10042992;29;20209;-79
2023/02/13 04:10:26;;;;;;;30.67;15.37;;;;;1.00;103017.00;;;;10034158;29;20212;-80
2023/02/13 04:15:38;;;;;;;32.80;16.53;;;;;0.90;103020.00;;;;10066118;29;20198;-80
2023/02/13 04:20:40;;;;;;;39.60;17.10;;;;;0.80;103026.00;;;;10065540;29;20196;-79
2023/02/13 04:25:47;;;;;;;29.67;13.63;;;;;0.70;103027.00;;;;10018996;29;20228;-79
2023/02/13 04:30:49;;;;;;;34.97;14.30;;;;;0.60;103020.00;;;;10025486;29;20224;-80
2023/02/13 04:35:51;;;;;;;27.67;14.67;;;;;0.50;103025.00;;;;10004442;29;20202;-79
2023/02/13 04:40:53;;;;;;;32.47;14.37;;;;;0.30;103030.00;;;;9987268;29;20213;-79
2023/02/13 04:45:55;;;;;;;33.03;14.20;;;;;0.10;103021.00;;;;9973918;29;20653;-79
2023/02/13 04:50:56;;;;;;;30.33;15.83;;;;;-0.10;103021.00;;;;9979979;29;20194;-79
2023/02/13 04:55:59;;;;;;;26.93;14.57;;;;;-0.20;103019.00;;;;10033561;29;20221;-79
2023/02/13 05:01:01;;;;;;;34.73;16.27;;;;;-0.30;103026.00;;;;10018753;29;20268;-79
2023/02/13 05:06:03;;;;;;;34.73;14.53;;;;;-0.40;103016.00;;;;10084584;29;20789;-79
2023/02/13 05:11:05;;;;;;;30.90;14.73;;;;;-0.40;103020.00;;;;10041951;29;20241;-79
2023/02/13 05:16:07;;;;;;;30.37;15.33;;;;;-0.50;103014.00;;;;10026642;29;20212;-79
2023/02/13 05:26:30;;;;;;;27.63;14.10;;;;;-0.50;103020.00;;;;10036209;29;20231;-80
2023/02/13 05:31:32;;;;;;;33.83;16.30;;;;;-0.60;103028.00;;;;10034594;29;20217;-78
2023/02/13 05:36:34;;;;;;;25.67;13.93;;;;;-0.70;103026.00;;;;10051144;29;20233;-79
2023/02/13 05:41:36;;;;;;;29.00;14.17;;;;;-0.80;103027.00;;;;10064664;29;20208;-79
2023/02/13 05:46:39;;;;;;;24.43;13.73;;;;;-0.90;103027.00;;;;10033180;29;20675;-79
2023/02/13 05:51:42;;;;;;;28.23;14.97;;;;;-0.90;103032.00;;;;10016656;29;20249;-79
2023/02/13 05:56:44;;;;;;;25.97;12.93;;;;;-0.90;103033.00;;;;10020902;29;20201;-79
2023/02/13 06:01:46;;;;;;;22.77;13.30;;;;;-1.00;103030.00;;;;9992399;29;20284;-79
2023/02/13 06:06:48;;;;;;;26.17;13.33;;;;;-0.90;103033.00;;;;10008136;29;20197;-79
2023/02/13 06:11:50;;;;;;;23.07;14.10;;;;;-0.90;103031.00;;;;9992765;29;20280;-79
2023/02/13 06:16:52;;;;;;;28.57;15.27;;;;;-0.90;103031.00;;;;10007215;29;20272;-79
2023/02/13 06:21:54;;;;;;;25.20;13.27;;;;;-1.00;103028.00;;;;10006725;29;20217;-79
2023/02/13 06:26:56;;;;;;;25.03;13.63;;;;;-1.00;103031.00;;;;9990742;29;20261;-79
2023/02/13 06:31:58;;;;;;;23.93;13.20;;;;;-1.10;103027.00;;;;10050356;29;20265;-79
2023/02/13 06:37:00;;;;;;;24.63;13.80;;;;;-1.10;103020.00;;;;10030732;29;20211;-79
2023/02/13 06:42:02;;;;;;;26.47;13.53;;;;;-1.10;103028.00;;;;10046307;29;20240;-79
2023/02/13 06:47:04;;;;;;;30.33;16.07;;;;;-1.00;103019.00;;;;9980338;29;21041;-79
2023/02/13 06:52:06;;;;;;;30.77;13.83;;;;;-0.90;103022.00;;;;10023028;29;20192;-78
2023/02/13 06:57:08;;;;;;;28.10;14.00;;;;;-0.90;103034.00;;;;10021673;29;20307;-79
2023/02/13 07:02:11;;;;;;;25.73;13.00;;;;;-0.90;103031.00;;;;10051306;29;20227;-79
2023/02/13 07:07:14;;;;;;;25.87;13.27;;;;;-0.90;103032.00;;;;10032452;29;20227;-79
2023/02/13 07:12:16;;;;;;;27.73;14.60;;;;;-0.90;103035.00;;;;10003954;29;20193;-79
2023/02/13 07:17:18;;;;;;;24.00;12.67;;;;;-0.80;103032.00;;;;10000446;29;20291;-79
2023/02/13 07:22:20;;;;;;;22.30;12.37;;;;;-0.70;103044.00;;;;10062538;29;20285;-79
2023/02/13 07:27:22;;;;;;;23.67;12.77;;;;;-0.60;103049.00;;;;10017631;29;20239;-78
2023/02/13 07:32:24;;;;;;;26.97;12.33;;;;;-0.50;103047.00;;;;10077746;29;20264;-79
2023/02/13 07:37:27;;;;;;;23.40;12.17;;;;;-0.30;103045.00;;;;10036874;29;20679;-79
2023/02/13 07:42:33;;;;;;;29.90;13.87;;;;;-0.20;103039.00;;;;10084820;29;20249;-79
2023/02/13 07:47:35;;;;;;;27.93;14.40;;;;;0.00;103041.00;;;;10074259;29;20573;-79
2023/02/13 07:52:37;;;;;;;29.80;13.80;;;;;0.10;103046.00;;;;10028311;29;20246;-79
2023/02/13 07:57:39;;;;;;;27.37;13.37;;;;;0.30;103040.00;;;;9993751;29;20215;-79
2023/02/13 08:02:41;;;;;;;27.47;14.60;;;;;0.60;103047.00;;;;10043718;29;20204;-79
2023/02/13 08:07:43;;;;;;;33.17;15.47;;;;;0.80;103048.00;;;;10027837;29;20197;-79
2023/02/13 08:12:45;;;;;;;31.43;14.33;;;;;1.10;103051.00;;;;10036249;29;20204;-79
2023/02/13 08:17:47;;;;;;;27.87;14.03;;;;;1.30;103043.00;;;;10046754;29;20589;-80
2023/02/13 08:22:49;;;;;;;33.07;16.03;;;;;1.60;103054.00;;;;10011670;29;20209;-78
2023/02/13 08:27:51;;;;;;;39.97;18.10;;;;;1.90;103042.00;;;;10038375;29;20626;-78
2023/02/13 08:32:54;;;;;;;36.93;17.93;;;;;2.30;103046.00;;;;10051109;29;20303;-78
2023/02/13 08:37:56;;;;;;;36.97;17.47;;;;;2.60;103041.00;;;;10016852;29;20201;-79
2023/02/13 08:43:03;;;;;;;34.30;16.83;;;;;2.90;103047.00;;;;10022388;29;20205;-79
2023/02/13 08:48:06;;;;;;;31.37;18.80;;;;;3.30;103036.00;;;;10056384;29;20186;-79
2023/02/13 08:53:08;;;;;;;74.13;27.50;;;;;4.00;103041.00;;;;10055570;29;20615;-79
2023/02/13 08:58:10;;;;;;;71.87;29.87;;;;;4.90;103041.00;;;;10036168;29;20292;-80
2023/02/13 09:03:12;;;;;;;60.13;29.63;;;;;5.70;103049.00;;;;10013036;29;20254;-79
2023/02/13 09:08:14;;;;;;;49.50;25.77;;;;;6.40;103052.00;;;;10034796;29;20707;-79
2023/02/13 09:13:18;;;;;;;39.03;22.30;;;;;6.80;103048.00;;;;10063147;29;20613;-78
2023/02/13 09:18:20;;;;;;;33.17;19.97;;;;;7.20;103046.00;;;;10042780;29;20200;-78
2023/02/13 09:23:22;;;;;;;34.87;21.87;;;;;7.60;103057.00;;;;10022831;29;20251;-79
2023/02/13 09:28:24;;;;;;;29.23;18.07;;;;;8.00;103056.00;;;;10027315;29;20216;-79
2023/02/13 09:33:26;;;;;;;31.37;17.97;;;;;8.30;103059.00;;;;10000909;29;20220;-80
2023/02/13 09:38:28;;;;;;;28.10;16.77;;;;;8.60;103060.00;;;;9987586;29;20209;-79
2023/02/13 09:43:39;;;;;;;23.93;15.07;;;;;8.80;103070.00;;;;10016391;29;20255;-80
2023/02/13 09:48:45;;;;;;;22.20;14.90;;;;;9.10;103063.00;;;;10052537;29;20533;-79
2023/02/13 09:54:01;;;;;;;21.83;13.63;;;;;9.30;103077.00;;;;10054881;29;20280;-79
2023/02/13 09:59:32;;;;;;;18.90;13.27;;;;;9.50;103074.00;;;;9987413;29;20260;-79
2023/02/13 10:04:55;;;;;;;24.00;14.70;;;;;9.90;103073.00;;;;9986544;29;20273;-79
2023/02/13 10:10:09;;;;;;;21.97;14.07;;;;;10.40;103073.00;;;;10040691;29;20253;-79
2023/02/13 10:15:29;;;;;;;20.73;12.77;;;;;10.60;103071.00;;;;10045895;29;20734;-78
2023/02/13 10:20:46;;;;;;;21.73;12.93;;;;;10.90;103064.00;;;;10010227;29;20629;-79
2023/02/13 10:25:55;;;;;;;22.53;13.10;;;;;11.20;103062.00;;;;10032573;29;20336;-79
2023/02/13 10:31:04;;;;;;;20.03;12.73;;;;;11.50;103059.00;;;;10025681;29;20209;-77
2023/02/13 10:36:10;;;;;;;19.90;12.63;;;;;11.90;103062.00;;;;10028309;29;20193;-79
2023/02/13 10:41:34;;;;;;;19.23;11.73;;;;;12.10;103063.00;;;;10012116;29;20215;-78
2023/02/13 10:46:44;;;;;;;23.73;12.90;;;;;12.40;103063.00;;;;10045368;29;20216;-76
2023/02/13 10:52:03;;;;;;;17.77;12.47;;;;;12.60;103065.00;;;;10043730;29;20197;-76
2023/02/13 10:57:27;;;;;;;19.80;12.53;;;;;12.80;103063.00;;;;10008810;29;20201;-79
2023/02/13 11:02:33;;;;;;;22.97;12.27;;;;;13.20;103059.00;;;;9984620;29;20249;-76
2023/02/13 11:07:35;;;;;;;19.70;12.70;;;;;13.40;103059.00;;;;10059487;29;20208;-77
2023/02/13 11:12:40;;;;;;;16.50;11.47;;;;;13.50;103047.00;;;;10008173;29;20197;-76
2023/02/13 11:17:43;;;;;;;17.73;11.40;;;;;13.70;103048.00;;;;10038261;29;20712;-77
2023/02/13 11:22:45;;;;;;;16.52;11.20;;;;;13.90;103041.00;;;;10036380;29;20259;-77
2023/02/13 11:27:49;;;;;;;19.60;11.20;;;;;14.00;103041.00;;;;10030968;29;20646;-77
2023/02/13 11:33:00;;;;;;;14.52;10.45;;;;;14.30;103039.00;;;;10010759;29;20209;-77
2023/02/13 11:38:08;;;;;;;14.93;9.52;;;;;14.40;103027.00;;;;10035350;29;20197;-77
2023/02/13 11:43:20;;;;;;;18.40;10.52;;;;;14.40;103025.00;;;;10070128;29;20680;-77
2023/02/13 11:48:22;;;;;;;13.68;8.88;;;;;14.30;103020.00;;;;10074834;29;20200;-78
2023/02/13 11:53:29;;;;;;;15.82;10.60;;;;;14.30;103006.00;;;;10023158;29;20189;-76
2023/02/13 11:58:31;;;;;;;16.35;10.23;;;;;14.30;103007.00;;;;10010070;29;20236;-76
2023/02/13 12:03:33;;;;;;;14.27;10.30;;;;;14.50;103001.00;;;;10011012;29;20213;-76
2023/02/13 12:08:37;;;;;;;14.43;10.07;;;;;14.60;102995.00;;;;9986987;29;20300;-76
2023/02/13 12:13:39;;;;;;;14.68;10.20;;;;;14.70;102997.00;;;;10043016;29;20278;-76
2023/02/13 12:18:46;;;;;;;15.57;9.45;;;;;15.00;102988.00;;;;10038499;29;20593;-76
2023/02/13 12:24:26;;;;;;;13.95;9.20;;;;;15.00;102994.00;;;;10012174;29;20224;-76
2023/02/13 12:29:52;;;;;;;13.40;9.68;;;;;15.10;102989.00;;;;10037730;29;20281;-76
2023/02/13 12:35:25;;;;;;;13.45;10.07;;;;;15.10;102977.00;;;;10025389;29;20205;-78
2023/02/13 12:40:46;;;;;;;15.43;10.57;;;;;15.10;102975.00;;;;10040952;29;20228;-77
2023/02/13 12:46:00;;;;;;;14.27;9.27;;;;;15.20;102979.00;;;;10025651;29;20576;-76
2023/02/13 12:51:21;;;;;;;14.07;8.32;;;;;15.30;102978.00;;;;10004649;29;20257;-77
2023/02/13 12:56:53;;;;;;;14.35;8.45;;;;;15.40;102960.00;;;;10042987;29;20220;-77
2023/02/13 13:02:25;;;;;;;11.63;8.32;;;;;15.40;102957.00;;;;10018617;29;20199;-76
2023/02/13 13:07:59;;;;;;;11.95;8.55;;;;;15.60;102953.00;;;;10010329;29;20546;-77
2023/02/13 13:13:20;;;;;;;14.23;9.75;;;;;15.80;102951.00;;;;10006205;29;20217;-76
2023/02/13 13:18:43;;;;;;;12.63;8.95;;;;;15.80;102947.00;;;;10018398;29;20201;-77
2023/02/13 13:23:52;;;;;;;15.32;9.88;;;;;15.80;102942.00;;;;10028839;29;20219;-78
2023/02/13 13:28:58;;;;;;;13.95;9.02;;;;;15.80;102933.00;;;;10015548;29;20323;-77
2023/02/13 13:34:04;;;;;;;14.15;9.20;;;;;15.80;102920.00;;;;10013321;29;20209;-77
2023/02/13 13:39:25;;;;;;;13.07;8.73;;;;;15.80;102920.00;;;;10032861;29;20213;-77
2023/02/13 13:44:59;;;;;;;13.40;9.10;;;;;15.60;102910.00;;;;10033331;29;20211;-77
2023/02/13 13:50:04;;;;;;;11.00;7.88;;;;;15.40;102923.00;;;;10032862;29;20603;-77
2023/02/13 13:55:45;;;;;;;12.60;8.07;;;;;15.30;102923.00;;;;10020646;29;20216;-77
2023/02/13 14:01:27;;;;;;;12.38;8.20;;;;;15.20;102918.00;;;;10019077;29;20206;-77
2023/02/13 14:06:44;;;;;;;13.85;8.68;;;;;15.30;102916.00;;;;10047946;29;20716;-77
2023/02/13 14:11:47;;;;;;;12.88;8.60;;;;;15.20;102915.00;;;;10014839;29;20200;-77
2023/02/13 14:16:49;;;;;;;13.05;8.85;;;;;15.30;102923.00;;;;10030715;29;20197;-79
2023/02/13 14:21:51;;;;;;;10.90;8.23;;;;;16.30;102913.00;;;;10024905;29;20655;-78
2023/02/13 14:26:55;;;;;;;12.85;9.07;;;;;17.90;102876.00;;;;10016596;29;20236;-78
2023/02/13 14:32:30;;;;;;;11.18;8.10;;;;;18.90;102859.00;;;;10009564;29;20220;-78
2023/02/13 14:37:38;;;;;;;13.07;8.95;;;;;18.60;102852.00;;;;10011391;29;20684;-78
2023/02/13 14:42:44;;;;;;;12.07;8.32;;;;;17.40;102857.00;;;;10007496;29;20298;-77
2023/02/13 14:47:52;;;;;;;10.52;7.93;;;;;16.60;102842.00;;;;10024888;29;20224;-77
2023/02/13 14:52:57;;;;;;;12.77;8.07;;;;;16.80;102858.00;;;;10026528;29;20253;-76
2023/02/13 14:58:38;;;;;;;12.93;7.10;;;;;17.90;102813.00;;;;10020756;29;20197;-76
2023/02/13 15:03:47;;;;;;;12.65;8.48;;;;;17.90;102819.00;;;;10031372;29;20222;-76
2023/02/13 15:08:51;;;;;;;12.65;7.68;;;;;19.50;102787.00;;;;9997467;29;20539;-77
2023/02/13 15:13:53;;;;;;;8.45;6.35;;;;;19.60;102779.00;;;;10016331;29;20201;-77
2023/02/13 15:18:55;;;;;;;10.77;7.95;;;;;19.10;102823.00;;;;10013770;29;20206;-77
2023/02/13 15:23:58;;;;;;;9.23;6.32;;;;;20.20;102778.00;;;;10003840;29;20221;-76
2023/02/13 15:29:11;;;;;;;8.95;6.82;;;;;20.10;102801.00;;;;10021358;29;20238;-77
2023/02/13 15:34:33;;;;;;;11.15;7.18;;;;;18.20;102801.00;;;;10010531;29;20265;-77
2023/02/13 15:39:35;;;;;;;10.40;6.57;;;;;15.90;102843.00;;;;10040092;29;20213;-77
2023/02/13 15:44:38;;;;;;;9.98;6.53;;;;;14.70;102834.00;;;;10008087;29;20219;-77
2023/02/13 15:49:45;;;;;;;8.38;6.20;;;;;14.00;102841.00;;;;10007941;29;20655;-76
2023/02/13 15:54:53;;;;;;;10.77;5.90;;;;;13.20;102854.00;;;;10045788;29;20296;-76
2023/02/13 15:59:57;;;;;;;7.97;6.00;;;;;12.60;102850.00;;;;10047336;29;20201;-76
2023/02/13 16:05:00;;;;;;;10.83;6.37;;;;;12.20;102843.00;;;;9989298;29;20657;-76
2023/02/13 16:10:24;;;;;;;10.30;7.00;;;;;11.90;102851.00;;;;10029997;29;20569;-76
2023/02/13 16:15:29;;;;;;;9.07;5.70;;;;;11.70;102861.00;;;;10025841;29;20200;-76
2023/02/13 16:20:33;;;;;;;8.83;5.57;;;;;11.50;102858.00;;;;10010918;29;20626;-76
2023/02/13 16:25:39;;;;;;;10.63;5.67;;;;;11.20;102869.00;;;;10019904;29;20221;-76
2023/02/13 16:30:44;;;;;;;10.30;5.70;;;;;11.00;102870.00;;;;10013519;29;20201;-76
2023/02/13 16:35:56;;;;;;;9.63;5.53;;;;;10.80;102885.00;;;;10004146;29;20198;-76
2023/02/13 16:41:02;;;;;;;11.53;5.97;;;;;10.70;102876.00;;;;10026102;29;20554;-79
2023/02/13 16:46:17;;;;;;;8.83;5.47;;;;;10.40;102881.00;;;;10017621;29;20209;-78
2023/02/13 16:51:23;;;;;;;9.87;5.63;;;;;10.20;102873.00;;;;10035780;29;20204;-77
2023/02/13 16:56:25;;;;;;;12.43;6.50;;;;;9.90;102877.00;;;;10014874;29;20205;-78
2023/02/13 17:01:27;;;;;;;13.33;6.47;;;;;9.70;102885.00;;;;10016344;29;20205;-77
2023/02/13 17:06:29;;;;;;;10.30;5.83;;;;;9.50;102881.00;;;;10000362;29;20217;-78
2023/02/13 17:11:31;;;;;;;13.80;7.57;;;;;9.40;102896.00;;;;10034204;29;20196;-78
2023/02/13 17:16:33;;;;;;;15.70;8.80;;;;;9.30;102897.00;;;;10026210;29;20228;-78
2023/02/13 17:21:35;;;;;;;12.27;7.90;;;;;9.20;102902.00;;;;10038523;29;20256;-79
2023/02/13 17:26:37;;;;;;;12.07;7.47;;;;;9.10;102908.00;;;;10063574;29;20224;-79
2023/02/13 17:31:39;;;;;;;11.67;7.07;;;;;8.90;102918.00;;;;10023152;29;20214;-79
2023/02/13 17:36:41;;;;;;;12.93;6.70;;;;;8.80;102907.00;;;;10040415;29;20686;-79
2023/02/13 17:41:43;;;;;;;15.00;8.43;;;;;8.70;102907.00;;;;10014537;29;20193;-79
2023/02/13 17:46:45;;;;;;;12.37;8.00;;;;;8.50;102911.00;;;;10029185;29;20236;-80
2023/02/13 17:51:47;;;;;;;21.70;12.33;;;;;8.30;102914.00;;;;10032643;29;20713;-80
2023/02/13 17:56:49;;;;;;;21.83;12.47;;;;;8.00;102904.00;;;;10028430;29;20232;-80
2023/02/13 18:01:51;;;;;;;17.63;11.57;;;;;7.80;102905.00;;;;10028711;29;20634;-79
2023/02/13 18:06:54;;;;;;;17.97;10.93;;;;;7.50;102910.00;;;;10043912;29;20666;-78
2023/02/13 18:11:55;;;;;;;17.47;9.83;;;;;7.50;102908.00;;;;10044033;29;20253;-78
2023/02/13 18:17:06;;;;;;;16.00;9.93;;;;;7.40;102902.00;;;;10059624;29;20208;-78
2023/02/13 18:22:09;;;;;;;16.50;9.20;;;;;7.60;102906.00;;;;10028720;29;20217;-78
2023/02/13 18:27:11;;;;;;;19.93;10.47;;;;;7.70;102906.00;;;;10013048;29;20585;-78
2023/02/13 18:32:13;;;;;;;18.10;11.60;;;;;7.80;102901.00;;;;10014271;29;20632;-78
2023/02/13 18:37:16;;;;;;;22.60;12.80;;;;;7.50;102907.00;;;;10029561;29;20201;-77
2023/02/13 18:42:18;;;;;;;21.97;13.00;;;;;7.30;102906.00;;;;10014250;29;20200;-78
2023/02/13 18:47:20;;;;;;;19.93;10.33;;;;;7.10;102905.00;;;;10012449;29;20213;-78
2023/02/13 18:52:22;;;;;;;21.80;11.70;;;;;7.10;102907.00;;;;10013220;29;20197;-78
2023/02/13 18:57:23;;;;;;;21.40;11.87;;;;;6.80;102905.00;;;;10042732;29;20231;-78
2023/02/13 19:02:25;;;;;;;16.80;11.63;;;;;6.50;102903.00;;;;10004822;29;20243;-78
2023/02/13 19:07:28;;;;;;;21.67;11.73;;;;;6.40;102903.00;;;;9974759;29;20278;-79
2023/02/13 19:12:30;;;;;;;20.17;9.77;;;;;6.40;102899.00;;;;9988740;29;20208;-78
2023/02/13 19:17:33;;;;;;;18.20;11.40;;;;;6.70;102895.00;;;;9989102;29;20229;-79
2023/02/13 19:22:35;;;;;;;18.83;11.37;;;;;6.70;102896.00;;;;9976222;29;20205;-78
2023/02/13 19:27:37;;;;;;;17.37;10.87;;;;;6.60;102898.00;;;;10006908;29;20722;-80
2023/02/13 19:32:40;;;;;;;19.00;11.00;;;;;6.50;102887.00;;;;10042217;29;20211;-80
2023/02/13 19:37:42;;;;;;;16.80;11.10;;;;;6.40;102902.00;;;;10027557;29;20194;-80
2023/02/13 19:42:45;;;;;;;18.83;11.77;;;;;6.40;102896.00;;;;10028433;29;20193;-80
2023/02/13 19:47:47;;;;;;;22.57;11.13;;;;;6.40;102890.00;;;;10027773;29;20240;-80
2023/02/13 19:52:50;;;;;;;33.53;16.63;;;;;6.30;102898.00;;;;10025396;29;20804;-80
2023/02/13 19:57:52;;;;;;;24.37;14.93;;;;;6.10;102897.00;;;;10010493;29;20205;-80
2023/02/13 20:02:59;;;;;;;20.47;13.13;;;;;6.00;102897.00;;;;10025182;29;20229;-79
2023/02/13 20:08:01;;;;;;;24.80;12.67;;;;;6.10;102901.00;;;;10025935;29;20748;-79
2023/02/13 20:13:03;;;;;;;29.70;14.40;;;;;6.00;102886.00;;;;10040405;29;20207;-80
2023/02/13 20:18:05;;;;;;;28.27;16.53;;;;;5.90;102891.00;;;;10025376;29;20192;-81
2023/02/13 20:23:08;;;;;;;28.37;14.07;;;;;5.70;102897.00;;;;10015248;29;20224;-80
2023/02/13 20:28:10;;;;;;;24.57;14.33;;;;;5.40;102887.00;;;;10033187;29;20229;-79
2023/02/13 20:33:12;;;;;;;24.53;14.33;;;;;5.10;102885.00;;;;10041073;29;20208;-79
2023/02/13 20:38:15;;;;;;;23.73;13.77;;;;;4.90;102887.00;;;;10033127;29;20205;-79
2023/02/13 20:43:19;;;;;;;22.37;13.73;;;;;4.70;102904.00;;;;10032752;29;20197;-80
2023/02/13 20:48:21;;;;;;;21.03;12.10;;;;;4.60;102910.00;;;;10032827;29;20734;-79
2023/02/13 20:53:23;;;;;;;21.07;13.00;;;;;4.50;102906.00;;;;10033041;29;20225;-80
2023/02/13 20:58:24;;;;;;;27.43;13.63;;;;;4.40;102899.00;;;;10032690;29;20595;-79
2023/02/13 21:03:27;;;;;;;19.17;11.97;;;;;4.30;102891.00;;;;10018316;29;20212;-80
2023/02/13 21:08:28;;;;;;;26.20;12.50;;;;;4.10;102898.00;;;;10017631;29;20800;-79
2023/02/13 21:13:34;;;;;;;24.33;13.40;;;;;4.00;102906.00;;;;10018527;29;20683;-80
2023/02/13 21:18:37;;;;;;;27.20;15.17;;;;;4.00;102897.00;;;;10033377;29;20276;-78
2023/02/13 21:23:39;;;;;;;26.97;15.40;;;;;4.10;102900.00;;;;10033634;29;20215;-78
2023/02/13 21:28:44;;;;;;;24.47;15.03;;;;;4.00;102905.00;;;;9996581;29;20225;-77
2023/02/13 21:33:46;;;;;;;28.67;15.57;;;;;3.80;102909.00;;;;10027008;29;20596;-78
2023/02/13 21:38:48;;;;;;;26.57;15.70;;;;;3.70;102905.00;;;;10071827;29;20240;-80
2023/02/13 21:43:50;;;;;;;31.40;16.50;;;;;3.70;102904.00;;;;10050545;29;20292;-80
2023/02/13 21:48:55;;;;;;;25.53;16.27;;;;;3.60;102890.00;;;;10032629;29;20196;-79
2023/02/13 21:53:58;;;;;;;29.20;16.47;;;;;3.60;102907.00;;;;10023001;29;20273;-80
2023/02/13 21:59:00;;;;;;;31.63;17.17;;;;;3.50;102908.00;;;;10012028;29;20205;-79
2023/02/13 22:04:05;;;;;;;32.87;18.23;;;;;3.40;102900.00;;;;9993763;29;20218;-79
2023/02/13 22:09:12;;;;;;;27.70;16.47;;;;;3.30;102898.00;;;;10042673;29;20208;-80
2023/02/13 22:14:16;;;;;;;29.40;16.73;;;;;3.20;102886.00;;;;10069091;29;20200;-80
2023/02/13 22:19:19;;;;;;;32.17;17.27;;;;;3.20;102885.00;;;;10053946;29;20252;-79
2023/02/13 22:24:21;;;;;;;32.27;17.67;;;;;3.20;102881.00;;;;10066788;29;20218;-81
2023/02/13 22:29:24;;;;;;;38.03;17.67;;;;;3.20;102877.00;;;;10051148;29;20300;-79
2023/02/13 22:34:26;;;;;;;28.83;16.30;;;;;3.30;102870.00;;;;10043620;29;20293;-80
2023/02/13 22:39:28;;;;;;;35.50;17.70;;;;;3.30;102874.00;;;;10059207;29;20189;-80
2023/02/13 22:44:30;;;;;;;36.53;17.53;;;;;3.20;102887.00;;;;10041369;29;20274;-80
2023/02/13 22:49:32;;;;;;;29.03;15.93;;;;;3.20;102875.00;;;;10027733;29;20239;-80
2023/02/13 22:54:34;;;;;;;34.40;16.73;;;;;3.10;102876.00;;;;10030447;29;20197;-81
2023/02/13 22:59:36;;;;;;;28.10;14.83;;;;;3.00;102877.00;;;;9994810;29;20206;-80
2023/02/13 23:04:41;;;;;;;29.00;14.30;;;;;2.90;102872.00;;;;9990093;29;20253;-80
2023/02/13 23:09:46;;;;;;;35.13;17.73;;;;;3.00;102871.00;;;;10004051;29;20198;-80
2023/02/13 23:14:48;;;;;;;27.03;16.23;;;;;3.20;102871.00;;;;10003594;29;20182;-80
2023/02/13 23:19:50;;;;;;;34.17;17.27;;;;;3.50;102879.00;;;;9988527;29;20201;-80
2023/02/13 23:24:52;;;;;;;34.60;17.33;;;;;3.60;102872.00;;;;10047181;29;20867;-80
2023/02/13 23:29:54;;;;;;;28.03;16.20;;;;;3.40;102874.00;;;;10008925;29;20269;-80
2023/02/13 23:34:56;;;;;;;27.10;16.23;;;;;3.20;102874.00;;;;10037620;29;20720;-80
2023/02/13 23:39:58;;;;;;;35.47;17.17;;;;;2.90;102874.00;;;;10047463;29;20732;-80
2023/02/13 23:45:00;;;;;;;28.43;16.10;;;;;2.80;102881.00;;;;10026996;29;20308;-80
2023/02/13 23:50:03;;;;;;;34.70;16.20;;;;;2.70;102867.00;;;;10027151;29;20201;-80
2023/02/13 23:55:06;;;;;;;29.90;16.33;;;;;2.60;102867.00;;;;9988454;29;20193;-80
